In Rescue
 
Open Full Screen Window  High Contrast Mode
Wind Gusting 00 knots
08
May 19, 2019 11:22 AM CDT
Present Weather: Light Snow
Weather Information
Wind Direction
  030 °
Wind Speed
  08 kt (9 mph)
Wind Gust
  00 kt (0 mph)
Altimeter
29.88 in
Visibility
2 SM
Temperature
01° C
34° F
Dewpoint
00° C
32° F
Humidity
93%
1hr Rain Fall
00.01 in.
24hr Rain Fall
00.09 in.
Sky Condition
Overcast @ 1,500 ft
Broken @ 1,000 ft
Broken @ 600 ft
IFR

METAR KCOQ 191622Z AUTO 03008KT 2SM -SN BKN006 BKN010 OVC015 01/00 A2988 RMK AO2 VIS 1 1/2V3 P0001

FAA Disclaimer: The data displayed is for advisory purposes only and is not to be used for flight planning or operations.